Time;durP1;ratioP1;P1;durP2;ratioP2;P2;SDS_P1;SDS_P2;PMS_P1;PMS_P2;Temp;Humidity;BMP_temperature;BMP_pressure;BME280_temperature;BME280_humidity;BME280_pressure;Samples;Min_cycle;Max_cycle;Signal;HPM_P1;HPM_P2
2022/12/04 00:01:23;;;;;;;22.92;11.73;;;2.20;99.90;;;;;;5087280;28;20390;-59
2022/12/04 00:03:58;;;;;;;30.02;14.77;;;2.20;99.90;;;;;;5104890;27;20044;-60
2022/12/04 00:06:26;;;;;;;24.58;13.27;;;2.20;99.90;;;;;;5101426;28;20117;-59
2022/12/04 00:08:53;;;;;;;29.95;14.07;;;2.10;99.90;;;;;;5103360;28;20492;-59
2022/12/04 00:11:23;;;;;;;30.42;13.95;;;2.00;99.90;;;;;;5105434;27;20487;-60
2022/12/04 00:13:50;;;;;;;26.73;14.38;;;2.00;99.90;;;;;;5107198;28;20458;-59
2022/12/04 00:16:21;;;;;;;29.08;13.65;;;2.00;99.90;;;;;;5111615;28;20042;-59
2022/12/04 00:18:48;;;;;;;38.95;15.27;;;2.00;99.90;;;;;;5099280;28;20120;-59
2022/12/04 00:21:16;;;;;;;28.95;13.80;;;2.00;99.90;;;;;;5107388;28;20072;-59
2022/12/04 00:23:44;;;;;;;35.03;14.57;;;2.00;99.90;;;;;;5104175;28;20043;-59
2022/12/04 00:26:25;;;;;;;33.90;15.13;;;2.00;99.90;;;;;;5107254;27;20092;-59
2022/12/04 00:28:53;;;;;;;32.53;15.10;;;2.00;99.90;;;;;;5112635;28;20074;-59
2022/12/04 00:31:23;;;;;;;29.65;13.70;;;1.90;99.90;;;;;;5110135;27;20031;-59
2022/12/04 00:33:50;;;;;;;35.78;15.38;;;1.80;99.90;;;;;;5107996;27;20113;-59
2022/12/04 00:36:19;;;;;;;37.17;16.08;;;1.70;99.90;;;;;;5099600;28;20161;-59
2022/12/04 00:38:46;;;;;;;29.73;14.02;;;1.70;99.90;;;;;;5083862;28;20109;-59
2022/12/04 00:41:20;;;;;;;30.73;13.55;;;1.70;99.90;;;;;;5107788;27;20071;-59
2022/12/04 00:43:47;;;;;;;34.53;14.85;;;1.70;99.90;;;;;;5101922;28;20069;-59
2022/12/04 00:46:14;;;;;;;33.17;14.18;;;1.70;99.90;;;;;;5087488;28;20077;-60
2022/12/04 00:48:42;;;;;;;;;;;1.70;99.90;;;;;;5104179;28;20102;-59
2022/12/04 00:51:11;;;;;;;31.33;13.40;;;1.70;99.90;;;;;;5103390;28;20305;-59
2022/12/04 00:53:39;;;;;;;30.83;14.57;;;1.70;99.90;;;;;;5102707;28;20032;-60
2022/12/04 00:56:11;;;;;;;40.78;15.60;;;1.70;99.90;;;;;;5103427;28;21548;-59
2022/12/04 00:58:38;;;;;;;33.97;15.65;;;1.70;99.90;;;;;;5103467;28;20066;-59
2022/12/04 01:01:11;;;;;;;43.03;17.20;;;1.70;99.90;;;;;;5098750;28;20074;-59
2022/12/04 01:03:39;;;;;;;33.67;15.38;;;1.70;99.90;;;;;;5108269;28;20039;-59
2022/12/04 01:06:06;;;;;;;31.38;14.05;;;1.70;99.90;;;;;;5099660;28;20110;-59
2022/12/04 01:08:33;;;;;;;;;;;1.70;99.90;;;;;;5100755;28;20507;-59
2022/12/04 01:11:04;;;;;;;28.88;13.13;;;1.70;99.90;;;;;;5102926;28;19974;-60
2022/12/04 01:13:31;;;;;;;31.65;15.07;;;1.80;99.90;;;;;;5107543;28;20555;-59
2022/12/04 01:15:58;;;;;;;30.02;14.73;;;1.80;99.90;;;;;;5100126;28;20036;-59
2022/12/04 01:18:25;;;;;;;19.92;9.68;;;1.80;99.90;;;;;;5099191;28;20059;-59
2022/12/04 01:20:52;;;;;;;33.38;16.20;;;1.80;99.90;;;;;;5106785;28;20092;-60
2022/12/04 01:23:19;;;;;;;35.15;16.05;;;1.70;99.90;;;;;;5099533;28;20047;-59
2022/12/04 01:25:53;;;;;;;35.03;16.05;;;1.70;99.90;;;;;;5102619;28;20044;-59
2022/12/04 01:28:21;;;;;;;31.05;13.80;;;1.60;99.90;;;;;;5104920;27;20063;-59
2022/12/04 01:31:01;;;;;;;;;;;1.60;99.90;;;;;;5111409;27;20039;-59
2022/12/04 01:33:29;;;;;;;32.30;14.48;;;1.50;99.90;;;;;;5099093;28;19923;-59
2022/12/04 01:35:57;;;;;;;28.92;12.30;;;1.40;99.90;;;;;;5100752;28;20078;-59
2022/12/04 01:38:24;;;;;;;28.85;12.75;;;1.40;99.90;;;;;;5104132;28;20032;-60
2022/12/04 01:40:52;;;;;;;30.50;12.80;;;1.30;99.90;;;;;;5101704;28;20048;-59
2022/12/04 01:43:19;;;;;;;29.35;13.40;;;1.30;99.90;;;;;;5098331;28;20557;-59
2022/12/04 01:45:51;;;;;;;31.55;13.65;;;1.40;99.90;;;;;;5117905;27;20063;-59
2022/12/04 01:48:32;;;;;;;34.38;14.23;;;1.40;99.90;;;;;;5103844;28;20241;-59
2022/12/04 01:51:22;;;;;;;27.92;13.25;;;1.50;99.90;;;;;;5110317;28;20059;-59
2022/12/04 01:53:54;;;;;;;27.77;13.30;;;1.50;99.90;;;;;;5099753;28;20116;-59
2022/12/04 01:56:25;;;;;;;29.63;12.77;;;1.50;99.90;;;;;;5109990;28;20048;-59
2022/12/04 01:58:55;;;;;;;33.78;14.00;;;1.40;99.90;;;;;;5104799;28;20072;-59
2022/12/04 02:01:23;;;;;;;31.15;13.60;;;1.50;99.90;;;;;;5114084;28;20094;-59
2022/12/04 02:03:50;;;;;;;28.33;12.80;;;1.50;99.90;;;;;;5109357;28;20051;-59
2022/12/04 02:06:16;;;;;;;30.90;13.57;;;1.50;99.90;;;;;;5111203;28;20089;-59
2022/12/04 02:08:43;;;;;;;30.08;13.90;;;1.50;99.90;;;;;;5111257;28;20043;-59
2022/12/04 02:11:41;;;;;;;24.02;9.30;;;1.50;99.90;;;;;;5110652;28;20075;-59
2022/12/04 02:14:45;;;;;;;27.75;11.60;;;1.50;99.90;;;;;;5103939;28;20077;-59
2022/12/04 02:17:36;;;;;;;31.38;13.55;;;1.50;99.90;;;;;;5094159;28;20503;-59
2022/12/04 02:20:23;;;;;;;30.08;14.48;;;1.50;99.90;;;;;;5105554;28;20043;-59
2022/12/04 02:23:05;;;;;;;32.15;14.70;;;1.50;99.90;;;;;;5109268;28;20097;-59
2022/12/04 02:25:40;;;;;;;29.33;13.95;;;1.50;99.90;;;;;;5111164;28;20085;-59
2022/12/04 02:28:14;;;;;;;30.05;13.13;;;1.50;99.90;;;;;;5111000;28;20044;-59
2022/12/04 02:30:43;;;;;;;29.95;12.70;;;1.50;99.90;;;;;;5109265;28;20040;-59
2022/12/04 02:33:23;;;;;;;28.08;12.52;;;1.40;99.90;;;;;;5119113;27;20047;-59
2022/12/04 02:36:02;;;;;;;32.78;12.88;;;1.40;99.90;;;;;;5135936;27;20054;-59
2022/12/04 02:38:47;;;;;;;30.88;13.73;;;1.40;99.90;;;;;;5110478;27;20074;-59
2022/12/04 02:41:46;;;;;;;25.80;12.63;;;1.40;99.90;;;;;;5094839;28;20052;-59
2022/12/04 02:44:27;;;;;;;28.52;12.77;;;1.40;99.90;;;;;;5090286;28;20056;-59
2022/12/04 02:47:02;;;;;;;28.23;12.98;;;1.40;99.90;;;;;;5103385;28;20048;-59
2022/12/04 02:49:44;;;;;;;28.15;13.18;;;1.40;99.90;;;;;;5102949;28;20078;-59
2022/12/04 02:52:14;;;;;;;29.48;13.57;;;1.40;99.90;;;;;;5113477;28;20098;-60
2022/12/04 02:54:47;;;;;;;26.42;12.50;;;1.40;99.90;;;;;;5114753;28;20043;-59
2022/12/04 02:57:20;;;;;;;27.85;13.32;;;1.50;99.90;;;;;;5099871;28;20043;-59
2022/12/04 02:59:49;;;;;;;29.20;13.23;;;1.50;99.90;;;;;;5130862;27;20039;-59
2022/12/04 03:02:47;;;;;;;26.13;13.00;;;1.50;99.90;;;;;;5134770;27;20096;-59
2022/12/04 03:05:21;;;;;;;28.37;13.40;;;1.50;99.90;;;;;;5112948;28;20047;-59
2022/12/04 03:08:04;;;;;;;25.70;12.18;;;1.50;99.90;;;;;;5114241;28;20305;-60
2022/12/04 03:10:35;;;;;;;30.15;13.25;;;1.50;99.90;;;;;;5115053;28;20051;-59
2022/12/04 03:13:08;;;;;;;30.60;12.90;;;1.40;99.90;;;;;;5113320;28;20123;-59
2022/12/04 03:15:49;;;;;;;30.88;12.88;;;1.40;99.90;;;;;;5114270;27;20062;-59
2022/12/04 03:18:29;;;;;;;29.48;13.30;;;1.40;99.90;;;;;;5134840;27;20043;-59
2022/12/04 03:21:03;;;;;;;29.95;12.43;;;1.40;99.90;;;;;;5119326;27;20488;-59
2022/12/04 03:23:36;;;;;;;27.98;13.27;;;1.40;99.90;;;;;;5109394;28;20066;-59
2022/12/04 03:26:26;;;;;;;26.17;12.23;;;1.50;99.90;;;;;;5108708;28;20072;-59
2022/12/04 03:29:00;;;;;;;25.70;11.65;;;1.50;99.90;;;;;;5106136;28;20407;-59
2022/12/04 03:31:43;;;;;;;23.77;12.18;;;1.40;99.90;;;;;;5098202;28;20040;-59
2022/12/04 03:34:14;;;;;;;26.15;12.57;;;1.30;99.90;;;;;;5111702;27;20114;-59
2022/12/04 03:36:49;;;;;;;27.15;12.77;;;1.30;99.90;;;;;;5110964;27;20075;-59
2022/12/04 03:39:30;;;;;;;29.85;13.23;;;1.40;99.90;;;;;;5107995;27;20443;-59
2022/12/04 03:42:04;;;;;;;24.38;11.77;;;1.30;99.90;;;;;;5133651;27;20071;-59
2022/12/04 03:44:45;;;;;;;27.45;12.45;;;1.20;99.90;;;;;;5133054;27;20100;-59
2022/12/04 03:47:20;;;;;;;27.80;11.68;;;1.10;99.90;;;;;;5116555;27;20078;-59
2022/12/04 03:50:00;;;;;;;25.45;12.63;;;1.10;99.90;;;;;;5111635;28;20504;-59
2022/12/04 03:52:41;;;;;;;25.65;12.13;;;1.10;99.90;;;;;;5113366;28;20471;-59
2022/12/04 03:55:25;;;;;;;25.50;12.60;;;1.20;99.90;;;;;;5112494;28;20064;-59
2022/12/04 03:57:58;;;;;;;26.73;12.77;;;1.20;99.90;;;;;;5115592;27;20035;-59
2022/12/04 04:00:26;;;;;;;27.38;14.00;;;1.20;99.90;;;;;;5130404;27;20096;-59
2022/12/04 04:03:02;;;;;;;;;;;1.20;99.90;;;;;;5103632;28;20068;-59
2022/12/04 04:05:31;;;;;;;30.77;11.98;;;1.30;99.90;;;;;;5112983;28;19927;-59
2022/12/04 04:10:49;;;;;;;26.60;13.13;;;1.30;99.90;;;;;;5109917;28;20123;-59
2022/12/04 04:24:42;;;;;;;31.98;14.30;;;1.30;99.90;;;;;;5106307;27;20069;-59
2022/12/04 04:27:09;;;;;;;28.35;13.07;;;1.30;99.90;;;;;;5113029;28;20126;-59
2022/12/04 04:29:37;;;;;;;28.23;13.15;;;1.30;99.90;;;;;;5094864;28;20090;-59
2022/12/04 04:32:17;;;;;;;25.48;13.63;;;1.30;99.90;;;;;;5111010;28;20029;-59
2022/12/04 04:35:16;;;;;;;29.30;13.35;;;1.30;99.90;;;;;;5114067;27;20035;-59
2022/12/04 04:37:59;;;;;;;27.80;13.23;;;1.40;99.90;;;;;;5133454;27;20103;-59
2022/12/04 04:40:39;;;;;;;30.77;12.85;;;1.40;99.90;;;;;;5133775;27;20043;-59
2022/12/04 04:43:31;;;;;;;21.65;11.07;;;1.40;99.90;;;;;;5102514;27;20068;-59
2022/12/04 04:46:21;;;;;;;30.83;13.45;;;1.50;99.90;;;;;;5132089;27;20154;-59
2022/12/04 04:48:53;;;;;;;31.35;12.18;;;1.50;99.90;;;;;;5110197;27;20576;-59
2022/12/04 04:51:20;;;;;;;30.27;14.05;;;1.60;99.90;;;;;;5112778;28;20567;-59
2022/12/04 04:53:51;;;;;;;;;;;1.60;99.90;;;;;;5112509;28;20089;-59
2022/12/04 04:56:22;;;;;;;25.92;11.70;;;1.60;99.90;;;;;;5119879;22;20338;-59
2022/12/04 04:58:49;;;;;;;28.58;13.82;;;1.60;99.90;;;;;;5108554;28;20079;-60
2022/12/04 05:01:43;;;;;;;25.23;11.57;;;1.60;99.90;;;;;;5110919;28;20075;-60
2022/12/04 05:04:10;;;;;;;27.80;12.65;;;1.50;99.90;;;;;;5106354;28;20039;-60
2022/12/04 05:06:37;;;;;;;31.40;13.38;;;1.50;99.90;;;;;;5116211;27;20134;-59
2022/12/04 05:09:04;;;;;;;28.63;12.43;;;1.50;99.90;;;;;;5113502;27;20687;-60
2022/12/04 05:11:31;;;;;;;25.85;13.18;;;1.50;99.90;;;;;;5132659;27;20071;-60
2022/12/04 05:13:57;;;;;;;27.58;12.38;;;1.50;99.90;;;;;;5112846;27;20539;-60
2022/12/04 05:16:24;;;;;;;20.85;8.85;;;1.50;99.90;;;;;;5107164;28;20113;-61
2022/12/04 05:21:37;;;;;;;20.02;10.50;;;1.50;99.90;;;;;;5112217;28;20040;-60
2022/12/04 05:24:03;;;;;;;19.67;10.00;;;1.50;99.90;;;;;;5109989;28;20028;-60
2022/12/04 05:26:30;;;;;;;21.00;11.60;;;1.50;99.90;;;;;;5093853;28;20403;-60
2022/12/04 05:28:57;;;;;;;25.73;10.65;;;1.50;99.90;;;;;;5110203;28;20035;-60
2022/12/04 05:31:24;;;;;;;17.38;8.75;;;1.50;99.90;;;;;;5108284;28;20093;-60
2022/12/04 05:33:50;;;;;;;23.80;10.48;;;1.40;99.90;;;;;;5110392;28;20051;-60
2022/12/04 05:36:17;;;;;;;14.43;7.53;;;1.40;99.90;;;;;;5111282;28;20117;-60
2022/12/04 05:38:44;;;;;;;17.13;7.45;;;1.40;99.90;;;;;;5109659;28;20085;-60
2022/12/04 05:41:10;;;;;;;24.40;10.38;;;1.40;99.90;;;;;;5110275;28;20488;-60
2022/12/04 05:43:37;;;;;;;22.33;11.07;;;1.30;99.90;;;;;;5110233;28;20059;-60
2022/12/04 05:46:06;;;;;;;26.00;11.23;;;1.30;99.90;;;;;;5111251;28;20071;-60
2022/12/04 05:48:34;;;;;;;25.15;11.23;;;1.30;99.90;;;;;;5110576;28;20122;-60
2022/12/04 05:51:09;;;;;;;23.35;10.55;;;1.30;99.90;;;;;;5110335;28;20038;-60
2022/12/04 05:53:36;;;;;;;26.42;11.43;;;1.30;99.90;;;;;;5110161;28;20043;-60
2022/12/04 05:56:04;;;;;;;29.67;11.55;;;1.30;99.90;;;;;;5110830;28;20052;-60
2022/12/04 05:58:34;;;;;;;24.30;11.32;;;1.30;99.90;;;;;;5109865;28;20043;-60
2022/12/04 06:01:11;;;;;;;22.73;11.25;;;1.30;99.90;;;;;;5108760;28;20063;-60
2022/12/04 06:03:37;;;;;;;28.30;12.57;;;1.30;99.90;;;;;;5110039;28;20404;-60
2022/12/04 06:06:35;;;;;;;24.08;11.23;;;1.30;99.90;;;;;;5110421;28;20042;-60
2022/12/04 06:09:03;;;;;;;27.38;11.90;;;1.30;99.90;;;;;;5111989;28;20468;-60
2022/12/04 06:11:33;;;;;;;24.67;10.98;;;1.30;99.90;;;;;;5115454;28;20132;-60
2022/12/04 06:14:02;;;;;;;27.95;12.50;;;1.30;99.90;;;;;;5111922;28;20043;-60
2022/12/04 06:16:32;;;;;;;28.15;12.82;;;1.30;99.90;;;;;;5110846;28;20492;-60
2022/12/04 06:19:05;;;;;;;31.23;11.95;;;1.30;99.90;;;;;;5115759;28;20235;-60
2022/12/04 06:21:34;;;;;;;28.48;14.20;;;1.30;99.90;;;;;;5106931;28;20040;-60
2022/12/04 06:24:01;;;;;;;27.23;14.00;;;1.30;99.90;;;;;;5103566;28;20055;-60
2022/12/04 06:26:28;;;;;;;37.60;15.20;;;1.30;99.90;;;;;;5095149;28;20071;-60
2022/12/04 06:28:56;;;;;;;27.30;12.73;;;1.30;99.90;;;;;;5095424;28;20093;-60
2022/12/04 06:31:25;;;;;;;23.85;11.75;;;1.30;99.90;;;;;;5105389;27;20526;-60
2022/12/04 06:33:53;;;;;;;29.88;12.93;;;1.30;99.90;;;;;;5114892;28;20047;-60
2022/12/04 06:36:21;;;;;;;29.20;13.25;;;1.40;99.90;;;;;;5114894;28;20101;-60
2022/12/04 06:38:49;;;;;;;24.25;12.88;;;1.40;99.90;;;;;;5115615;28;20047;-60
2022/12/04 06:41:19;;;;;;;28.98;12.65;;;1.40;99.90;;;;;;5108582;28;20063;-60
2022/12/04 06:43:47;;;;;;;23.75;11.68;;;1.40;99.90;;;;;;5112548;28;20040;-60
2022/12/04 06:46:17;;;;;;;30.13;12.32;;;1.40;99.90;;;;;;5115075;28;20131;-60
2022/12/04 06:48:44;;;;;;;25.83;11.77;;;1.40;99.90;;;;;;5113853;28;20461;-60
2022/12/04 06:51:19;;;;;;;26.95;11.75;;;1.40;99.90;;;;;;5115185;28;20072;-59
2022/12/04 06:53:46;;;;;;;23.63;12.57;;;1.50;99.90;;;;;;5113423;28;20543;-60
2022/12/04 06:56:16;;;;;;;28.63;12.13;;;1.50;99.90;;;;;;5114829;28;20609;-60
2022/12/04 06:58:48;;;;;;;27.40;12.20;;;1.50;99.90;;;;;;5113362;28;20035;-60
2022/12/04 07:01:18;;;;;;;26.75;13.32;;;1.50;99.90;;;;;;5108124;28;20071;-60
2022/12/04 07:03:45;;;;;;;24.63;12.50;;;1.60;99.90;;;;;;5112121;27;20047;-60
2022/12/04 07:06:22;;;;;;;24.77;11.50;;;1.60;99.90;;;;;;5114679;28;20032;-60
2022/12/04 07:08:51;;;;;;;25.85;11.75;;;1.70;99.90;;;;;;5113653;28;20436;-60
2022/12/04 07:11:19;;;;;;;23.45;11.55;;;1.70;99.90;;;;;;5113967;28;20109;-60
2022/12/04 07:13:47;;;;;;;25.35;12.13;;;1.80;99.90;;;;;;5103342;28;20643;-60
2022/12/04 07:16:15;;;;;;;25.60;11.85;;;1.80;99.90;;;;;;5114972;28;20456;-60
2022/12/04 07:18:42;;;;;;;21.98;11.75;;;1.80;99.90;;;;;;5117775;27;20391;-60
2022/12/04 07:21:13;;;;;;;26.25;12.43;;;1.80;99.90;;;;;;5115643;27;20071;-60
2022/12/04 07:23:40;;;;;;;22.85;11.73;;;1.90;99.90;;;;;;5114142;28;20126;-60
2022/12/04 07:26:10;;;;;;;21.67;11.43;;;1.90;99.90;;;;;;5095496;28;20496;-60
2022/12/04 07:28:38;;;;;;;23.20;11.50;;;1.90;99.90;;;;;;5113463;28;20127;-60
2022/12/04 07:31:07;;;;;;;21.25;11.02;;;1.90;99.90;;;;;;5109592;28;20086;-60
2022/12/04 07:33:34;;;;;;;24.42;11.05;;;1.90;99.90;;;;;;5108597;28;20386;-60
2022/12/04 07:36:03;;;;;;;19.83;11.40;;;2.00;99.90;;;;;;5108555;28;20063;-60
2022/12/04 07:38:30;;;;;;;21.95;10.05;;;2.00;99.90;;;;;;5113621;28;20078;-60
2022/12/04 07:40:59;;;;;;;21.83;11.00;;;2.10;99.90;;;;;;5113125;28;20089;-60
2022/12/04 07:43:27;;;;;;;22.58;12.02;;;2.10;99.90;;;;;;5112592;28;20070;-60
2022/12/04 07:45:54;;;;;;;28.55;12.75;;;2.10;99.90;;;;;;5113687;28;20110;-60
2022/12/04 07:48:20;;;;;;;27.70;13.88;;;2.10;99.90;;;;;;5113614;28;20047;-60
2022/12/04 07:50:47;;;;;;;20.63;9.55;;;2.10;99.90;;;;;;5113950;28;20044;-60
2022/12/04 07:53:14;;;;;;;24.70;12.52;;;2.20;99.90;;;;;;5111167;28;20449;-60
2022/12/04 07:55:41;;;;;;;24.92;12.52;;;2.30;99.90;;;;;;5113254;28;20108;-60
2022/12/04 07:58:08;;;;;;;31.33;12.50;;;2.40;99.90;;;;;;5112866;28;20097;-60
2022/12/04 08:00:35;;;;;;;17.48;9.65;;;2.40;99.90;;;;;;5112856;28;20039;-60
2022/12/04 08:03:01;;;;;;;22.83;10.15;;;2.40;99.90;;;;;;5101478;28;20416;-60
2022/12/04 08:05:28;;;;;;;30.83;14.38;;;2.50;99.90;;;;;;5093346;28;20101;-60
2022/12/04 08:07:55;;;;;;;20.48;10.75;;;2.50;99.90;;;;;;5093166;28;20126;-60
2022/12/04 08:10:21;;;;;;;27.17;13.07;;;2.60;99.90;;;;;;5102055;28;20068;-59
2022/12/04 08:12:48;;;;;;;25.45;11.48;;;2.60;99.90;;;;;;5104481;28;20090;-61
2022/12/04 08:15:15;;;;;;;17.92;9.05;;;2.70;99.90;;;;;;5113495;28;20086;-61
2022/12/04 08:17:41;;;;;;;16.25;8.88;;;2.70;99.90;;;;;;5113435;28;20104;-60
2022/12/04 08:20:08;;;;;;;26.27;13.70;;;2.80;99.90;;;;;;5111590;28;20078;-63
2022/12/04 08:22:35;;;;;;;26.60;12.90;;;2.80;99.90;;;;;;5111486;28;20063;-61
2022/12/04 08:25:02;;;;;;;31.52;13.57;;;2.80;99.90;;;;;;5111396;28;20067;-61
2022/12/04 08:27:29;;;;;;;31.63;12.93;;;2.70;99.90;;;;;;5112966;28;20055;-61
2022/12/04 08:29:55;;;;;;;24.63;11.60;;;2.70;99.90;;;;;;5112741;28;20075;-61
2022/12/04 08:32:22;;;;;;;27.00;12.05;;;2.80;99.90;;;;;;5105439;28;20522;-61
2022/12/04 08:34:50;;;;;;;20.80;10.80;;;2.90;99.90;;;;;;5111125;28;20060;-61
2022/12/04 08:37:21;;;;;;;25.33;10.98;;;3.00;99.90;;;;;;5111411;27;20544;-61
2022/12/04 08:39:48;;;;;;;21.52;11.23;;;3.10;99.90;;;;;;5112551;28;20188;-61
2022/12/04 08:42:15;;;;;;;18.15;10.73;;;3.20;99.90;;;;;;5112512;28;20048;-61
2022/12/04 08:44:41;;;;;;;17.08;8.70;;;3.50;99.90;;;;;;5111077;28;20097;-61
2022/12/04 08:47:08;;;;;;;22.20;10.30;;;3.70;99.90;;;;;;5105026;28;20048;-61
2022/12/04 08:49:35;;;;;;;14.70;8.43;;;3.90;99.90;;;;;;5112565;28;20071;-62
2022/12/04 08:52:02;;;;;;;21.70;10.45;;;4.10;99.90;;;;;;5111045;28;20054;-60
2022/12/04 08:54:28;;;;;;;19.15;9.90;;;4.10;99.90;;;;;;5112282;28;20083;-62
2022/12/04 08:57:02;;;;;;;22.90;11.10;;;4.10;99.90;;;;;;5111786;28;20139;-62
2022/12/04 08:59:28;;;;;;;22.50;10.40;;;4.20;99.90;;;;;;5112574;28;20067;-60
2022/12/04 09:01:55;;;;;;;15.82;7.28;;;4.40;99.90;;;;;;5109953;28;20070;-59
2022/12/04 09:04:22;;;;;;;16.55;9.18;;;4.50;99.90;;;;;;5112159;28;20035;-61
2022/12/04 09:06:49;;;;;;;17.05;9.85;;;4.80;99.90;;;;;;5117239;27;20059;-60
2022/12/04 09:09:15;;;;;;;14.10;7.57;;;5.10;99.90;;;;;;5120000;27;20060;-61
2022/12/04 09:11:44;;;;;;;16.23;8.85;;;5.20;99.90;;;;;;5119099;27;20508;-59
2022/12/04 09:14:11;;;;;;;19.08;9.90;;;5.30;99.90;;;;;;5121095;27;20452;-58
2022/12/04 09:16:38;;;;;;;19.20;10.55;;;5.50;99.90;;;;;;5112009;28;20078;-61
2022/12/04 09:19:05;;;;;;;19.13;8.57;;;5.40;99.90;;;;;;5114858;27;20032;-62
2022/12/04 09:21:31;;;;;;;16.00;8.48;;;5.20;99.90;;;;;;5116336;27;20399;-59
2022/12/04 09:23:59;;;;;;;19.60;8.15;;;5.00;99.90;;;;;;5117170;27;20077;-62
2022/12/04 09:26:28;;;;;;;13.70;7.75;;;5.00;99.90;;;;;;5120026;27;20068;-60
2022/12/04 09:28:57;;;;;;;15.07;7.22;;;4.90;99.90;;;;;;5117699;27;20642;-60
2022/12/04 09:31:24;;;;;;;18.55;9.32;;;5.00;99.90;;;;;;5118388;27;20035;-59
2022/12/04 09:33:52;;;;;;;16.45;8.95;;;5.00;99.90;;;;;;5120096;27;20046;-60
2022/12/04 09:36:19;;;;;;;17.10;8.13;;;5.10;99.90;;;;;;5119669;27;20074;-59
2022/12/04 09:38:48;;;;;;;20.60;10.05;;;5.10;99.90;;;;;;5109302;28;20040;-60
2022/12/04 09:41:23;;;;;;;23.73;11.55;;;4.90;99.90;;;;;;5111181;28;20093;-60
2022/12/04 09:43:56;;;;;;;16.45;8.32;;;5.00;99.90;;;;;;5115777;27;20550;-60
2022/12/04 09:46:30;;;;;;;15.80;8.90;;;4.90;99.90;;;;;;5119311;27;20113;-60
2022/12/04 09:49:00;;;;;;;17.40;8.82;;;5.10;99.90;;;;;;5115823;27;20051;-59
2022/12/04 09:51:29;;;;;;;18.98;8.52;;;5.30;99.90;;;;;;5116742;27;20043;-60
2022/12/04 09:54:06;;;;;;;16.77;8.05;;;5.50;99.90;;;;;;5112621;28;20043;-60
2022/12/04 09:56:33;;;;;;;16.77;8.77;;;5.60;99.90;;;;;;5117375;27;20039;-60
2022/12/04 09:59:15;;;;;;;14.88;8.18;;;5.80;99.90;;;;;;5109669;28;20066;-59
2022/12/04 10:01:46;;;;;;;13.90;7.75;;;5.80;99.90;;;;;;5101928;28;20583;-62
2022/12/04 10:04:15;;;;;;;13.93;7.57;;;5.80;99.90;;;;;;5111360;28;20100;-61
2022/12/04 10:07:15;;;;;;;14.95;7.65;;;5.90;99.90;;;;;;5110152;28;20040;-61
2022/12/04 10:09:52;;;;;;;11.68;6.55;;;5.80;99.90;;;;;;5110741;28;20039;-61
2022/12/04 10:12:46;;;;;;;14.38;6.65;;;5.70;99.90;;;;;;5099112;28;20082;-61
2022/12/04 10:15:23;;;;;;;13.68;6.88;;;5.60;99.90;;;;;;5091164;28;20558;-61
2022/12/04 10:18:17;;;;;;;10.90;6.90;;;5.60;99.90;;;;;;5094833;28;20085;-61
2022/12/04 10:20:56;;;;;;;14.75;7.80;;;5.60;99.90;;;;;;5108562;28;20096;-61
2022/12/04 10:23:52;;;;;;;11.75;6.90;;;5.80;99.90;;;;;;5110499;28;20047;-61
2022/12/04 10:26:24;;;;;;;14.10;7.95;;;5.90;99.90;;;;;;5121287;28;20116;-61
2022/12/04 10:28:59;;;;;;;12.38;7.18;;;6.00;99.90;;;;;;5125582;28;20092;-61
2022/12/04 10:31:29;;;;;;;14.48;7.45;;;6.10;99.90;;;;;;5108059;28;20035;-61
2022/12/04 10:34:04;;;;;;;14.90;8.52;;;6.20;99.90;;;;;;5110980;28;20058;-62
2022/12/04 10:36:33;;;;;;;14.55;7.72;;;6.30;99.90;;;;;;5098620;28;20032;-61
2022/12/04 10:39:14;;;;;;;13.63;7.40;;;6.40;99.90;;;;;;5121526;28;20686;-62
2022/12/04 10:41:51;;;;;;;13.48;6.80;;;6.60;99.90;;;;;;5117921;28;20043;-61
2022/12/04 10:44:19;;;;;;;13.60;8.20;;;6.80;99.90;;;;;;5121215;28;20468;-61
2022/12/04 10:46:46;;;;;;;14.82;7.45;;;6.70;99.90;;;;;;5116990;28;20089;-61
2022/12/04 10:49:26;;;;;;;16.40;8.85;;;6.90;99.90;;;;;;5116415;28;20063;-62
2022/12/04 10:51:53;;;;;;;12.90;7.03;;;7.00;99.90;;;;;;5116000;28;20039;-62
2022/12/04 10:54:31;;;;;;;14.98;7.57;;;7.10;99.90;;;;;;5124282;27;20071;-61
2022/12/04 10:56:59;;;;;;;;;;;7.20;99.90;;;;;;5105856;27;20043;-60
2022/12/04 10:59:27;;;;;;;15.85;8.27;;;7.50;99.90;;;;;;5122757;27;19927;-62
2022/12/04 11:02:09;;;;;;;13.38;7.43;;;7.50;99.90;;;;;;5118176;27;20070;-61
2022/12/04 11:04:36;;;;;;;16.35;8.70;;;7.60;99.90;;;;;;5114571;27;20044;-62
2022/12/04 11:07:07;;;;;;;15.98;7.45;;;7.60;99.90;;;;;;5115672;27;20093;-62
2022/12/04 11:09:34;;;;;;;16.20;8.15;;;7.60;99.90;;;;;;5122269;27;20104;-62
2022/12/04 11:12:07;;;;;;;18.58;9.07;;;7.60;99.90;;;;;;5124655;27;20035;-61
2022/12/04 11:14:34;;;;;;;14.75;8.32;;;7.70;99.90;;;;;;5124832;27;20138;-62
2022/12/04 11:17:05;;;;;;;16.58;8.07;;;7.80;99.90;;;;;;5100336;27;20508;-62
2022/12/04 11:19:35;;;;;;;15.27;6.97;;;7.70;99.90;;;;;;5123751;27;20031;-62
2022/12/04 11:22:18;;;;;;;17.00;8.38;;;7.80;99.90;;;;;;5097918;28;20770;-62
2022/12/04 11:24:53;;;;;;;15.18;7.97;;;7.80;99.90;;;;;;5117126;27;20036;-62
2022/12/04 11:27:26;;;;;;;13.05;7.97;;;7.60;99.90;;;;;;5124421;27;20065;-61
2022/12/04 11:29:54;;;;;;;16.73;8.07;;;7.90;99.90;;;;;;5115915;27;20450;-62
2022/12/04 11:32:25;;;;;;;17.38;9.68;;;7.50;99.90;;;;;;5110982;28;20039;-62
2022/12/04 11:34:54;;;;;;;14.70;8.63;;;7.50;99.90;;;;;;5102359;28;20048;-62
2022/12/04 11:37:25;;;;;;;13.02;7.22;;;7.60;99.90;;;;;;5111401;28;20032;-62
2022/12/04 11:39:53;;;;;;;13.20;7.32;;;7.70;99.90;;;;;;5113147;28;20074;-62
2022/12/04 11:42:26;;;;;;;15.05;7.43;;;7.70;99.90;;;;;;5113135;28;20454;-62
2022/12/04 11:45:00;;;;;;;12.32;7.45;;;7.70;99.90;;;;;;5112926;28;20071;-61
2022/12/04 11:47:31;;;;;;;11.20;7.07;;;7.70;99.90;;;;;;5113165;28;20077;-62
2022/12/04 11:50:02;;;;;;;10.90;5.82;;;7.60;99.90;;;;;;5113999;28;20099;-62
2022/12/04 11:52:29;;;;;;;13.68;6.93;;;7.50;99.90;;;;;;5113741;28;20044;-62
2022/12/04 11:55:01;;;;;;;19.67;9.20;;;7.30;99.90;;;;;;5113954;28;20415;-62
2022/12/04 11:57:41;;;;;;;15.90;9.40;;;7.30;99.90;;;;;;5112959;28;20078;-62
2022/12/04 12:00:18;;;;;;;19.77;10.15;;;7.10;99.90;;;;;;5106015;28;20035;-62
2022/12/04 12:03:25;;;;;;;24.95;11.88;;;6.90;99.90;;;;;;5116006;27;20035;-62
2022/12/04 12:06:07;;;;;;;21.88;10.95;;;6.70;99.90;;;;;;5118385;27;20100;-60
2022/12/04 12:08:58;;;;;;;20.60;11.13;;;6.50;99.90;;;;;;5116058;27;20036;-61
2022/12/04 12:11:41;;;;;;;23.33;11.05;;;6.30;99.90;;;;;;5118724;27;20483;-60
2022/12/04 12:14:15;;;;;;;22.90;11.13;;;6.10;99.90;;;;;;5120719;27;20100;-62
2022/12/04 12:17:05;;;;;;;24.25;11.52;;;6.00;99.90;;;;;;5115945;27;20031;-62
2022/12/04 12:20:00;;;;;;;23.50;11.32;;;6.00;99.90;;;;;;5119547;27;20554;-63
2022/12/04 12:22:42;;;;;;;20.25;11.05;;;5.80;99.90;;;;;;5119699;27;20039;-61
2022/12/04 12:25:53;;;;;;;23.52;11.45;;;5.70;99.90;;;;;;5120137;27;20032;-62
2022/12/04 12:28:32;;;;;;;22.08;11.73;;;5.60;99.90;;;;;;5089647;27;20052;-62
2022/12/04 12:31:32;;;;;;;26.48;12.80;;;5.50;99.90;;;;;;5117255;27;20047;-61
2022/12/04 12:34:17;;;;;;;29.45;12.75;;;5.30;99.90;;;;;;5116855;27;20054;-61
2022/12/04 12:36:48;;;;;;;24.00;12.48;;;5.10;99.90;;;;;;5125213;27;20060;-61
2022/12/04 12:39:22;;;;;;;26.50;12.45;;;5.10;99.90;;;;;;5129877;27;20488;-62
2022/12/04 12:41:54;;;;;;;27.83;12.88;;;5.10;99.90;;;;;;5119928;27;20050;-62
2022/12/04 12:44:47;;;;;;;31.15;12.80;;;5.10;99.90;;;;;;5122322;27;20070;-62
2022/12/04 12:47:18;;;;;;;30.13;14.05;;;5.10;99.90;;;;;;5112286;27;20549;-61
2022/12/04 12:49:56;;;;;;;26.38;13.35;;;5.10;99.90;;;;;;5116961;27;20035;-61
2022/12/04 12:52:42;;;;;;;30.90;13.77;;;5.20;99.90;;;;;;5117194;27;20040;-61
2022/12/04 12:55:29;;;;;;;24.35;12.15;;;5.30;99.90;;;;;;5094172;28;20411;-61
2022/12/04 12:58:08;;;;;;;29.33;12.88;;;5.30;99.90;;;;;;5111794;28;20492;-61
2022/12/04 13:00:43;;;;;;;25.88;13.25;;;5.30;99.90;;;;;;5116139;27;20043;-61
2022/12/04 13:03:28;;;;;;;31.27;13.65;;;5.30;99.90;;;;;;5110179;28;20488;-61
2022/12/04 13:06:00;;;;;;;31.15;12.90;;;5.40;99.90;;;;;;5119092;27;20097;-61
2022/12/04 13:08:43;;;;;;;32.40;14.48;;;5.50;99.90;;;;;;5121303;27;20035;-61
2022/12/04 13:11:21;;;;;;;28.15;12.32;;;5.60;99.90;;;;;;5120692;27;20040;-62
2022/12/04 13:13:57;;;;;;;27.85;14.07;;;5.70;99.90;;;;;;5118022;27;20085;-61
2022/12/04 13:16:42;;;;;;;28.67;12.75;;;5.90;99.90;;;;;;5110336;28;20059;-61
2022/12/04 13:19:23;;;;;;;30.52;14.50;;;6.10;99.90;;;;;;5113240;27;20045;-62
2022/12/04 13:22:08;;;;;;;32.55;13.07;;;6.20;99.90;;;;;;5109111;28;20531;-61
2022/12/04 13:25:14;;;;;;;27.75;14.07;;;6.20;99.90;;;;;;5111804;27;20032;-61
2022/12/04 13:27:48;;;;;;;34.78;14.73;;;6.30;99.90;;;;;;5069027;27;20051;-61